Fort Shaw, Montana
Current Conditions -  °F | °C
As of 8:53 PM on Friday 19 Dec 2014 (Local Time) from KGTF Reporting Station
Clear Clear  
Wind Chill: 30°   Ceiling: Unl
Heat Index: 38°   Visibility: 10mi
Dew Point: 30°   Wind: 14mph
Humidity: 73%   Direction: 220°SW
Pressure: 29.82"   Gusts: NA
Location:  47.51°N, 111.82°W
Report Text: KGTF 200353Z 22012KT 10SM CLR 03/M01 A2982 RMK AO2 SLP125 T00331011
Loading
Personal Weather Stations






























Interactive Weather Map New forecast layout! Learn more

10-Day Weather Forecast

Advertisements
Track Severe Weather on mobile